Saint Bernice, Indiana
Current Conditions -  °F | °C
As of 12:35 AM on Tuesday 27 Jan 2015 (Local Time) from KPRG Reporting Station
Overcast Overcast  
Wind Chill: 29°   Ceiling: 600
Heat Index: 29°   Visibility: 7mi
Dew Point: 28°   Wind: 3mph
Humidity: 99%   Direction: 40°NE
Pressure: 29.91"   Gusts: NA
Location:  39.71°N, 87.52°W
Report Text: KPRG 270535Z AUTO 04003KT 7SM OVC006 M02/M02 A2991 RMK AO2 T10181020
Loading
Personal Weather Stations






























Interactive Weather Map New forecast layout! Learn more

10-Day Weather Forecast

Advertisements
Track Severe Weather on mobile